sensor_id;sensor_type;location;lat;lon;timestamp;pressure;altitude;pressure_sealevel;temperature;humidity
67738;BME280;54534;43.612;1.572;2023-03-13T00:01:39;99072.09;;;19.26;53.60
67738;BME280;54534;43.612;1.572;2023-03-13T00:04:05;99063.25;;;19.25;53.33
67738;BME280;54534;43.612;1.572;2023-03-13T00:06:36;99074.03;;;19.23;53.55
67738;BME280;54534;43.612;1.572;2023-03-13T00:09:04;99062.53;;;19.23;53.46
67738;BME280;54534;43.612;1.572;2023-03-13T00:11:30;99067.00;;;19.22;53.49
67738;BME280;54534;43.612;1.572;2023-03-13T00:13:57;99070.69;;;19.21;53.17
67738;BME280;54534;43.612;1.572;2023-03-13T00:16:23;99069.81;;;19.21;53.14
67738;BME280;54534;43.612;1.572;2023-03-13T00:18:51;99072.59;;;19.19;53.26
67738;BME280;54534;43.612;1.572;2023-03-13T00:21:19;99079.63;;;19.20;53.19
67738;BME280;54534;43.612;1.572;2023-03-13T00:23:45;99066.44;;;19.19;53.11
67738;BME280;54534;43.612;1.572;2023-03-13T00:26:13;99070.06;;;19.18;53.30
67738;BME280;54534;43.612;1.572;2023-03-13T00:28:40;99070.19;;;19.16;53.10
67738;BME280;54534;43.612;1.572;2023-03-13T00:31:17;99064.97;;;19.15;53.22
67738;BME280;54534;43.612;1.572;2023-03-13T00:33:45;99062.31;;;19.15;53.13
67738;BME280;54534;43.612;1.572;2023-03-13T00:36:17;99049.94;;;19.14;52.89
67738;BME280;54534;43.612;1.572;2023-03-13T00:38:43;99053.59;;;19.12;53.09
67738;BME280;54534;43.612;1.572;2023-03-13T00:41:16;99049.13;;;19.13;52.86
67738;BME280;54534;43.612;1.572;2023-03-13T00:43:43;99051.91;;;19.11;52.89
67738;BME280;54534;43.612;1.572;2023-03-13T00:46:11;99048.38;;;19.11;53.05
67738;BME280;54534;43.612;1.572;2023-03-13T00:48:37;99037.03;;;19.09;53.13
67738;BME280;54534;43.612;1.572;2023-03-13T00:51:03;99045.88;;;19.09;52.79
67738;BME280;54534;43.612;1.572;2023-03-13T00:53:29;99041.50;;;19.08;52.88
67738;BME280;54534;43.612;1.572;2023-03-13T00:58:26;99031.84;;;19.07;53.03
67738;BME280;54534;43.612;1.572;2023-03-13T01:00:52;99038.97;;;19.07;52.93
67738;BME280;54534;43.612;1.572;2023-03-13T01:03:18;99034.63;;;19.06;52.85
67738;BME280;54534;43.612;1.572;2023-03-13T01:05:45;99044.44;;;19.05;53.03
67738;BME280;54534;43.612;1.572;2023-03-13T01:08:10;99042.75;;;19.04;52.82
67738;BME280;54534;43.612;1.572;2023-03-13T01:10:36;99038.28;;;19.05;52.96
67738;BME280;54534;43.612;1.572;2023-03-13T01:13:01;99045.41;;;19.04;52.70
67738;BME280;54534;43.612;1.572;2023-03-13T01:15:29;99042.03;;;19.02;52.77
67738;BME280;54534;43.612;1.572;2023-03-13T01:17:55;99043.84;;;19.01;52.51
67738;BME280;54534;43.612;1.572;2023-03-13T01:20:20;99047.47;;;19.00;52.94
67738;BME280;54534;43.612;1.572;2023-03-13T01:22:46;99038.53;;;19.01;52.81
67738;BME280;54534;43.612;1.572;2023-03-13T01:25:11;99021.84;;;18.99;52.96
67738;BME280;54534;43.612;1.572;2023-03-13T01:27:36;99013.00;;;18.99;52.90
67738;BME280;54534;43.612;1.572;2023-03-13T01:30:02;99009.63;;;18.97;52.80
67738;BME280;54534;43.612;1.572;2023-03-13T01:32:28;99001.47;;;18.98;52.80
67738;BME280;54534;43.612;1.572;2023-03-13T01:34:53;98997.25;;;18.96;52.48
67738;BME280;54534;43.612;1.572;2023-03-13T01:37:18;98996.41;;;18.95;52.87
67738;BME280;54534;43.612;1.572;2023-03-13T01:39:44;98997.41;;;18.94;52.58
67738;BME280;54534;43.612;1.572;2023-03-13T01:42:09;99002.72;;;18.94;52.86
67738;BME280;54534;43.612;1.572;2023-03-13T01:44:55;99000.06;;;18.94;52.82
67738;BME280;54534;43.612;1.572;2023-03-13T01:47:21;98995.72;;;18.93;52.94
67738;BME280;54534;43.612;1.572;2023-03-13T01:49:47;98990.38;;;18.93;52.64
67738;BME280;54534;43.612;1.572;2023-03-13T01:52:17;98990.38;;;18.93;52.65
67738;BME280;54534;43.612;1.572;2023-03-13T01:57:37;98982.63;;;18.90;52.46
67738;BME280;54534;43.612;1.572;2023-03-13T02:00:11;98973.84;;;18.89;52.58
67738;BME280;54534;43.612;1.572;2023-03-13T02:02:41;98973.94;;;18.88;52.68
67738;BME280;54534;43.612;1.572;2023-03-13T02:05:07;98966.94;;;18.87;52.66
67738;BME280;54534;43.612;1.572;2023-03-13T02:07:39;98964.13;;;18.88;52.32
67738;BME280;54534;43.612;1.572;2023-03-13T02:10:07;98958.09;;;18.86;52.63
67738;BME280;54534;43.612;1.572;2023-03-13T02:12:36;98961.72;;;18.85;52.49
67738;BME280;54534;43.612;1.572;2023-03-13T02:15:10;98951.06;;;18.85;52.52
67738;BME280;54534;43.612;1.572;2023-03-13T02:17:37;98946.75;;;18.84;52.72
67738;BME280;54534;43.612;1.572;2023-03-13T02:20:03;98944.91;;;18.85;52.48
67738;BME280;54534;43.612;1.572;2023-03-13T02:22:43;98928.91;;;18.85;52.61
67738;BME280;54534;43.612;1.572;2023-03-13T02:28:06;98926.53;;;18.82;52.40
67738;BME280;54534;43.612;1.572;2023-03-13T02:30:33;98911.53;;;18.81;52.58
67738;BME280;54534;43.612;1.572;2023-03-13T02:32:59;98907.03;;;18.81;52.34
67738;BME280;54534;43.612;1.572;2023-03-13T02:35:25;98894.69;;;18.80;52.66
67738;BME280;54534;43.612;1.572;2023-03-13T02:37:59;98886.72;;;18.80;52.62
67738;BME280;54534;43.612;1.572;2023-03-13T02:40:35;98884.19;;;18.78;52.63
67738;BME280;54534;43.612;1.572;2023-03-13T02:43:06;98884.19;;;18.78;52.60
67738;BME280;54534;43.612;1.572;2023-03-13T02:45:33;98881.53;;;18.78;52.21
67738;BME280;54534;43.612;1.572;2023-03-13T02:47:58;98888.81;;;18.76;52.51
67738;BME280;54534;43.612;1.572;2023-03-13T02:50:24;98885.16;;;18.77;52.47
67738;BME280;54534;43.612;1.572;2023-03-13T02:53:00;98882.50;;;18.77;52.65
67738;BME280;54534;43.612;1.572;2023-03-13T02:55:30;98867.50;;;18.76;52.50
67738;BME280;54534;43.612;1.572;2023-03-13T02:57:56;98880.94;;;18.75;52.45
67738;BME280;54534;43.612;1.572;2023-03-13T03:00:22;98864.94;;;18.75;52.30
67738;BME280;54534;43.612;1.572;2023-03-13T03:02:54;98870.28;;;18.75;52.38
67738;BME280;54534;43.612;1.572;2023-03-13T03:05:20;98859.63;;;18.75;52.37
67738;BME280;54534;43.612;1.572;2023-03-13T03:07:46;98860.59;;;18.74;52.49
67738;BME280;54534;43.612;1.572;2023-03-13T03:10:12;98852.75;;;18.72;52.43
67738;BME280;54534;43.612;1.572;2023-03-13T03:12:37;98845.59;;;18.73;52.30
67738;BME280;54534;43.612;1.572;2023-03-13T03:15:03;98837.63;;;18.73;52.52
67738;BME280;54534;43.612;1.572;2023-03-13T03:17:29;98835.91;;;18.72;52.21
67738;BME280;54534;43.612;1.572;2023-03-13T03:19:54;98833.25;;;18.72;52.16
67738;BME280;54534;43.612;1.572;2023-03-13T03:22:20;98812.09;;;18.70;52.52
67738;BME280;54534;43.612;1.572;2023-03-13T03:24:45;98812.09;;;18.70;52.22
67738;BME280;54534;43.612;1.572;2023-03-13T03:27:11;98828.06;;;18.70;52.49
67738;BME280;54534;43.612;1.572;2023-03-13T03:29:36;98810.41;;;18.69;52.29
67738;BME280;54534;43.612;1.572;2023-03-13T03:32:02;98818.53;;;18.67;52.02
67738;BME280;54534;43.612;1.572;2023-03-13T03:34:27;98820.34;;;18.67;52.41
67738;BME280;54534;43.612;1.572;2023-03-13T03:36:52;98805.06;;;18.69;52.63
67738;BME280;54534;43.612;1.572;2023-03-13T03:39:18;98803.41;;;18.68;52.12
67738;BME280;54534;43.612;1.572;2023-03-13T03:41:43;98798.19;;;18.66;52.49
67738;BME280;54534;43.612;1.572;2023-03-13T03:44:09;98799.19;;;18.65;52.34
67738;BME280;54534;43.612;1.572;2023-03-13T03:46:34;98797.34;;;18.66;52.30
67738;BME280;54534;43.612;1.572;2023-03-13T03:48:59;98790.34;;;18.65;52.05
67738;BME280;54534;43.612;1.572;2023-03-13T03:51:25;98790.34;;;18.65;52.51
67738;BME280;54534;43.612;1.572;2023-03-13T03:53:50;98787.69;;;18.65;52.22
67738;BME280;54534;43.612;1.572;2023-03-13T03:56:16;98790.34;;;18.65;52.34
67738;BME280;54534;43.612;1.572;2023-03-13T03:58:41;98786.00;;;18.64;52.39
67738;BME280;54534;43.612;1.572;2023-03-13T04:01:06;98791.31;;;18.64;52.45
67738;BME280;54534;43.612;1.572;2023-03-13T04:03:32;98788.81;;;18.62;52.48
67738;BME280;54534;43.612;1.572;2023-03-13T04:05:58;98776.47;;;18.61;52.60
67738;BME280;54534;43.612;1.572;2023-03-13T04:08:24;98769.31;;;18.62;52.37
67738;BME280;54534;43.612;1.572;2023-03-13T04:10:49;98769.31;;;18.62;52.37
67738;BME280;54534;43.612;1.572;2023-03-13T04:13:15;98772.94;;;18.61;52.41
67738;BME280;54534;43.612;1.572;2023-03-13T04:15:41;98760.63;;;18.60;52.05
67738;BME280;54534;43.612;1.572;2023-03-13T04:18:07;98765.97;;;18.60;52.11
67738;BME280;54534;43.612;1.572;2023-03-13T04:20:32;98763.28;;;18.60;52.33
67738;BME280;54534;43.612;1.572;2023-03-13T04:22:58;98756.25;;;18.59;52.08
67738;BME280;54534;43.612;1.572;2023-03-13T04:25:24;98750.94;;;18.59;52.36
67738;BME280;54534;43.612;1.572;2023-03-13T04:27:49;98750.09;;;18.58;52.11
67738;BME280;54534;43.612;1.572;2023-03-13T04:30:15;98747.56;;;18.56;52.07
67738;BME280;54534;43.612;1.572;2023-03-13T04:32:41;98753.75;;;18.57;52.49
67738;BME280;54534;43.612;1.572;2023-03-13T04:35:06;98737.91;;;18.55;52.11
67738;BME280;54534;43.612;1.572;2023-03-13T04:37:32;98726.28;;;18.56;52.45
67738;BME280;54534;43.612;1.572;2023-03-13T04:39:57;98724.59;;;18.55;51.99
67738;BME280;54534;43.612;1.572;2023-03-13T04:42:23;98708.06;;;18.52;52.40
67738;BME280;54534;43.612;1.572;2023-03-13T04:44:48;98713.94;;;18.55;52.42
67738;BME280;54534;43.612;1.572;2023-03-13T04:47:14;98706.09;;;18.54;52.12
67738;BME280;54534;43.612;1.572;2023-03-13T04:49:39;98706.09;;;18.54;51.98
67738;BME280;54534;43.612;1.572;2023-03-13T04:52:05;98701.72;;;18.53;51.82
67738;BME280;54534;43.612;1.572;2023-03-13T04:54:30;98697.25;;;18.53;51.94
67738;BME280;54534;43.612;1.572;2023-03-13T04:56:56;98693.75;;;18.53;52.28
67738;BME280;54534;43.612;1.572;2023-03-13T04:59:21;98691.94;;;18.53;51.91
67738;BME280;54534;43.612;1.572;2023-03-13T05:01:46;98696.56;;;18.51;52.25
67738;BME280;54534;43.612;1.572;2023-03-13T05:04:12;98703.59;;;18.52;52.02
67738;BME280;54534;43.612;1.572;2023-03-13T05:06:37;98707.22;;;18.51;52.32
67738;BME280;54534;43.612;1.572;2023-03-13T05:09:03;98700.19;;;18.50;52.17
67738;BME280;54534;43.612;1.572;2023-03-13T05:11:29;98704.69;;;18.50;51.89
67738;BME280;54534;43.612;1.572;2023-03-13T05:13:55;98704.69;;;18.50;52.19
67738;BME280;54534;43.612;1.572;2023-03-13T05:16:20;98701.19;;;18.49;52.23
67738;BME280;54534;43.612;1.572;2023-03-13T05:18:46;98699.38;;;18.50;52.32
67738;BME280;54534;43.612;1.572;2023-03-13T05:21:11;98704.69;;;18.50;52.26
67738;BME280;54534;43.612;1.572;2023-03-13T05:23:36;98695.16;;;18.47;52.40
67738;BME280;54534;43.612;1.572;2023-03-13T05:26:02;98701.31;;;18.48;51.97
67738;BME280;54534;43.612;1.572;2023-03-13T05:28:27;98688.84;;;18.48;52.06
67738;BME280;54534;43.612;1.572;2023-03-13T05:30:53;98691.50;;;18.48;52.18
67738;BME280;54534;43.612;1.572;2023-03-13T05:33:18;98699.63;;;18.47;52.33
67738;BME280;54534;43.612;1.572;2023-03-13T05:35:45;98700.47;;;18.47;52.14
67738;BME280;54534;43.612;1.572;2023-03-13T05:38:11;98695.28;;;18.45;51.82
67738;BME280;54534;43.612;1.572;2023-03-13T05:40:36;98698.78;;;18.46;51.93
67738;BME280;54534;43.612;1.572;2023-03-13T05:43:02;98691.75;;;18.45;51.68
67738;BME280;54534;43.612;1.572;2023-03-13T05:45:27;98694.56;;;18.43;52.16
67738;BME280;54534;43.612;1.572;2023-03-13T05:47:53;98682.97;;;18.44;52.21
67738;BME280;54534;43.612;1.572;2023-03-13T05:50:18;98680.31;;;18.44;51.85
67738;BME280;54534;43.612;1.572;2023-03-13T05:52:43;98684.78;;;18.44;52.25
67738;BME280;54534;43.612;1.572;2023-03-13T05:55:09;98689.25;;;18.43;52.15
67738;BME280;54534;43.612;1.572;2023-03-13T05:57:34;98681.28;;;18.43;51.98
67738;BME280;54534;43.612;1.572;2023-03-13T06:00:00;98686.59;;;18.43;52.12
67738;BME280;54534;43.612;1.572;2023-03-13T06:02:26;98685.75;;;18.43;51.75
67738;BME280;54534;43.612;1.572;2023-03-13T06:04:52;98687.56;;;18.42;52.08
67738;BME280;54534;43.612;1.572;2023-03-13T06:07:17;98684.06;;;18.42;51.96
67738;BME280;54534;43.612;1.572;2023-03-13T06:09:43;98676.91;;;18.42;52.25
67738;BME280;54534;43.612;1.572;2023-03-13T06:12:10;98675.25;;;18.41;52.15
67738;BME280;54534;43.612;1.572;2023-03-13T06:14:35;98681.41;;;18.42;52.09
67738;BME280;54534;43.612;1.572;2023-03-13T06:17:03;98690.38;;;18.41;51.94
67738;BME280;54534;43.612;1.572;2023-03-13T06:19:29;98698.19;;;18.42;52.03
67738;BME280;54534;43.612;1.572;2023-03-13T06:21:54;98692.06;;;18.42;52.04
67738;BME280;54534;43.612;1.572;2023-03-13T06:24:20;98691.34;;;18.40;52.23
67738;BME280;54534;43.612;1.572;2023-03-13T06:26:47;98691.34;;;18.40;52.31
67738;BME280;54534;43.612;1.572;2023-03-13T06:29:13;98705.50;;;18.40;52.25
67738;BME280;54534;43.612;1.572;2023-03-13T06:31:39;98716.13;;;18.40;52.16
67738;BME280;54534;43.612;1.572;2023-03-13T06:34:04;98716.97;;;18.41;52.05
67738;BME280;54534;43.612;1.572;2023-03-13T06:36:29;98718.78;;;18.40;52.19
67738;BME280;54534;43.612;1.572;2023-03-13T06:38:55;98710.81;;;18.40;52.70
67738;BME280;54534;43.612;1.572;2023-03-13T06:41:20;98699.31;;;18.40;52.31
67738;BME280;54534;43.612;1.572;2023-03-13T06:43:46;98696.66;;;18.40;52.39
67738;BME280;54534;43.612;1.572;2023-03-13T06:46:16;98694.00;;;18.40;52.48
67738;BME280;54534;43.612;1.572;2023-03-13T06:48:42;98694.00;;;18.40;52.15
67738;BME280;54534;43.612;1.572;2023-03-13T06:51:12;98687.72;;;18.41;52.10
67738;BME280;54534;43.612;1.572;2023-03-13T06:53:38;98675.63;;;18.37;52.07
67738;BME280;54534;43.612;1.572;2023-03-13T06:56:04;98672.00;;;18.38;52.25
67738;BME280;54534;43.612;1.572;2023-03-13T06:58:29;98669.50;;;18.36;52.41
67738;BME280;54534;43.612;1.572;2023-03-13T07:00:55;98664.00;;;18.38;52.64
67738;BME280;54534;43.612;1.572;2023-03-13T07:03:20;98655.19;;;18.37;52.35
67738;BME280;54534;43.612;1.572;2023-03-13T07:05:45;98657.84;;;18.37;52.00
67738;BME280;54534;43.612;1.572;2023-03-13T07:08:11;98643.84;;;18.35;52.19
67738;BME280;54534;43.612;1.572;2023-03-13T07:10:36;98643.00;;;18.34;52.12
67738;BME280;54534;43.612;1.572;2023-03-13T07:13:02;98637.66;;;18.34;52.39
67738;BME280;54534;43.612;1.572;2023-03-13T07:15:27;98625.34;;;18.33;52.15
67738;BME280;54534;43.612;1.572;2023-03-13T07:17:55;98639.47;;;18.34;52.22
67738;BME280;54534;43.612;1.572;2023-03-13T07:20:21;98627.28;;;18.31;52.10
67738;BME280;54534;43.612;1.572;2023-03-13T07:22:50;98625.47;;;18.32;52.38
67738;BME280;54534;43.612;1.572;2023-03-13T07:25:16;98627.28;;;18.31;52.16
67738;BME280;54534;43.612;1.572;2023-03-13T07:27:41;98628.97;;;18.32;51.91
67738;BME280;54534;43.612;1.572;2023-03-13T07:30:07;98633.47;;;18.32;51.98
67738;BME280;54534;43.612;1.572;2023-03-13T07:32:33;98627.28;;;18.31;51.69
67738;BME280;54534;43.612;1.572;2023-03-13T07:34:58;98620.31;;;18.30;51.95
67738;BME280;54534;43.612;1.572;2023-03-13T07:37:23;98625.63;;;18.30;52.08
67738;BME280;54534;43.612;1.572;2023-03-13T07:39:49;98614.13;;;18.30;51.53
67738;BME280;54534;43.612;1.572;2023-03-13T07:42:14;98607.13;;;18.29;51.66
67738;BME280;54534;43.612;1.572;2023-03-13T07:44:39;98599.97;;;18.29;51.70
67738;BME280;54534;43.612;1.572;2023-03-13T07:47:05;98604.59;;;18.27;51.46
67738;BME280;54534;43.612;1.572;2023-03-13T07:49:31;98600.97;;;18.28;51.97
67738;BME280;54534;43.612;1.572;2023-03-13T07:51:56;98595.66;;;18.28;51.50
67738;BME280;54534;43.612;1.572;2023-03-13T07:54:22;98592.25;;;18.26;51.63
67738;BME280;54534;43.612;1.572;2023-03-13T07:56:47;98586.94;;;18.26;51.68
67738;BME280;54534;43.612;1.572;2023-03-13T07:59:13;98586.13;;;18.26;51.76
67738;BME280;54534;43.612;1.572;2023-03-13T08:01:38;98580.91;;;18.24;51.92
67738;BME280;54534;43.612;1.572;2023-03-13T08:04:04;98585.28;;;18.25;51.96
67738;BME280;54534;43.612;1.572;2023-03-13T08:06:30;98577.28;;;18.25;51.76
67738;BME280;54534;43.612;1.572;2023-03-13T08:08:57;98576.44;;;18.25;51.55
67738;BME280;54534;43.612;1.572;2023-03-13T08:11:24;98579.94;;;18.25;51.87
67738;BME280;54534;43.612;1.572;2023-03-13T08:13:51;98575.59;;;18.24;51.84
67738;BME280;54534;43.612;1.572;2023-03-13T08:16:19;98576.59;;;18.23;51.57
67738;BME280;54534;43.612;1.572;2023-03-13T08:18:46;98571.28;;;18.23;51.90
67738;BME280;54534;43.612;1.572;2023-03-13T08:21:18;98566.75;;;18.23;51.38
67738;BME280;54534;43.612;1.572;2023-03-13T08:23:45;98577.56;;;18.22;51.84
67738;BME280;54534;43.612;1.572;2023-03-13T08:26:13;98581.06;;;18.22;51.62
67738;BME280;54534;43.612;1.572;2023-03-13T08:28:39;98575.03;;;18.20;51.92
67738;BME280;54534;43.612;1.572;2023-03-13T08:31:11;98574.91;;;18.22;51.63
67738;BME280;54534;43.612;1.572;2023-03-13T08:33:38;98578.53;;;18.21;51.59
67738;BME280;54534;43.612;1.572;2023-03-13T08:38:37;98573.19;;;18.21;51.58
67738;BME280;54534;43.612;1.572;2023-03-13T08:41:03;98581.31;;;18.19;51.53
67738;BME280;54534;43.612;1.572;2023-03-13T08:43:29;98579.59;;;18.18;51.71
67738;BME280;54534;43.612;1.572;2023-03-13T08:45:55;98578.78;;;18.18;51.76
67738;BME280;54534;43.612;1.572;2023-03-13T08:48:21;98575.13;;;18.19;51.83
67738;BME280;54534;43.612;1.572;2023-03-13T08:50:46;98574.28;;;18.18;51.53
67738;BME280;54534;43.612;1.572;2023-03-13T08:53:12;98581.31;;;18.19;51.36
67738;BME280;54534;43.612;1.572;2023-03-13T08:55:37;98584.13;;;18.18;51.85
67738;BME280;54534;43.612;1.572;2023-03-13T08:58:03;98574.28;;;18.18;51.65
67738;BME280;54534;43.612;1.572;2023-03-13T09:00:28;98579.59;;;18.18;51.75
67738;BME280;54534;43.612;1.572;2023-03-13T09:02:56;98568.16;;;18.18;51.81
67738;BME280;54534;43.612;1.572;2023-03-13T09:05:22;98569.13;;;18.17;51.53
67738;BME280;54534;43.612;1.572;2023-03-13T09:07:47;98568.16;;;18.18;51.83
67738;BME280;54534;43.612;1.572;2023-03-13T09:10:12;98564.63;;;18.17;51.46
67738;BME280;54534;43.612;1.572;2023-03-13T09:12:38;98561.13;;;18.17;51.53
67738;BME280;54534;43.612;1.572;2023-03-13T09:15:05;98546.97;;;18.16;51.33
67738;BME280;54534;43.612;1.572;2023-03-13T09:17:31;98559.44;;;18.16;51.58
67738;BME280;54534;43.612;1.572;2023-03-13T09:19:56;98556.78;;;18.16;51.40
67738;BME280;54534;43.612;1.572;2023-03-13T09:22:22;98545.16;;;18.17;51.24
67738;BME280;54534;43.612;1.572;2023-03-13T09:24:47;98550.63;;;18.15;51.27
67738;BME280;54534;43.612;1.572;2023-03-13T09:27:12;98536.50;;;18.15;51.52
67738;BME280;54534;43.612;1.572;2023-03-13T09:29:38;98527.50;;;18.16;51.53
67738;BME280;54534;43.612;1.572;2023-03-13T09:32:05;98525.84;;;18.15;51.69
67738;BME280;54534;43.612;1.572;2023-03-13T09:34:31;98524.03;;;18.15;51.40
67738;BME280;54534;43.612;1.572;2023-03-13T09:36:56;98531.16;;;18.15;51.37
67738;BME280;54534;43.612;1.572;2023-03-13T09:39:22;98517.88;;;18.15;51.37
67738;BME280;54534;43.612;1.572;2023-03-13T09:42:00;98523.19;;;18.15;51.83
67738;BME280;54534;43.612;1.572;2023-03-13T09:44:34;98518.72;;;18.15;51.75
67738;BME280;54534;43.612;1.572;2023-03-13T09:47:24;98501.91;;;18.15;51.64
67738;BME280;54534;43.612;1.572;2023-03-13T09:50:00;98493.91;;;18.15;51.61
67738;BME280;54534;43.612;1.572;2023-03-13T09:52:37;98481.59;;;18.14;51.45
67738;BME280;54534;43.612;1.572;2023-03-13T10:02:54;98469.28;;;18.12;51.57
67738;BME280;54534;43.612;1.572;2023-03-13T10:05:23;98469.28;;;18.12;51.46
67738;BME280;54534;43.612;1.572;2023-03-13T10:07:50;98468.44;;;18.12;51.53
67738;BME280;54534;43.612;1.572;2023-03-13T10:10:38;98461.31;;;18.12;51.27
67738;BME280;54534;43.612;1.572;2023-03-13T10:14:02;98462.28;;;18.11;51.40
67738;BME280;54534;43.612;1.572;2023-03-13T10:16:03;98461.31;;;18.12;51.79
67738;BME280;54534;43.612;1.572;2023-03-13T10:18:34;98447.16;;;18.12;51.61
67738;BME280;54534;43.612;1.572;2023-03-13T10:21:11;98438.31;;;18.11;51.81
67738;BME280;54534;43.612;1.572;2023-03-13T10:23:42;98441.13;;;18.10;51.35
67738;BME280;54534;43.612;1.572;2023-03-13T10:26:31;98441.84;;;18.12;51.24
67738;BME280;54534;43.612;1.572;2023-03-13T10:29:04;98434.69;;;18.12;51.72
67738;BME280;54534;43.612;1.572;2023-03-13T10:31:38;98448.00;;;18.12;51.58
67738;BME280;54534;43.612;1.572;2023-03-13T10:34:10;98441.00;;;18.11;51.31
67738;BME280;54534;43.612;1.572;2023-03-13T10:36:48;98435.66;;;18.11;51.59
67738;BME280;54534;43.612;1.572;2023-03-13T10:39:18;98429.50;;;18.11;51.27
67738;BME280;54534;43.612;1.572;2023-03-13T10:41:47;98417.03;;;18.11;51.87
67738;BME280;54534;43.612;1.572;2023-03-13T10:44:19;98417.03;;;18.11;51.41
67738;BME280;54534;43.612;1.572;2023-03-13T10:46:47;98416.19;;;18.11;51.79
67738;BME280;54534;43.612;1.572;2023-03-13T10:49:22;98395.75;;;18.11;51.88
67738;BME280;54534;43.612;1.572;2023-03-13T10:52:03;98391.28;;;18.12;51.51
67738;BME280;54534;43.612;1.572;2023-03-13T10:54:31;98386.09;;;18.10;51.72
67738;BME280;54534;43.612;1.572;2023-03-13T10:59:48;98373.63;;;18.11;51.59
67738;BME280;54534;43.612;1.572;2023-03-13T11:04:52;98364.00;;;18.10;51.83
67738;BME280;54534;43.612;1.572;2023-03-13T11:07:27;98362.16;;;18.10;51.52
67738;BME280;54534;43.612;1.572;2023-03-13T11:10:16;98364.00;;;18.10;51.49
67738;BME280;54534;43.612;1.572;2023-03-13T11:12:47;98362.16;;;18.10;51.95
67738;BME280;54534;43.612;1.572;2023-03-13T11:18:06;98356.81;;;18.10;51.64
67738;BME280;54534;43.612;1.572;2023-03-13T11:20:39;98368.47;;;18.09;51.70
67738;BME280;54534;43.612;1.572;2023-03-13T11:23:19;98364.81;;;18.10;51.44
67738;BME280;54534;43.612;1.572;2023-03-13T11:31:38;98335.53;;;18.10;51.63
67738;BME280;54534;43.612;1.572;2023-03-13T11:48:07;98283.19;;;18.11;51.72
67738;BME280;54534;43.612;1.572;2023-03-13T11:55:48;98278.03;;;18.09;52.21
67738;BME280;54534;43.612;1.572;2023-03-13T12:01:27;98270.03;;;18.09;51.94
67738;BME280;54534;43.612;1.572;2023-03-13T12:04:00;98268.22;;;18.10;51.81
67738;BME280;54534;43.612;1.572;2023-03-13T12:06:32;98268.06;;;18.11;52.21
67738;BME280;54534;43.612;1.572;2023-03-13T12:09:29;98252.25;;;18.10;52.28
67738;BME280;54534;43.612;1.572;2023-03-13T12:12:03;98254.94;;;18.10;52.02
67738;BME280;54534;43.612;1.572;2023-03-13T12:14:38;98258.41;;;18.10;52.04
67738;BME280;54534;43.612;1.572;2023-03-13T12:17:09;98242.44;;;18.10;51.97
67738;BME280;54534;43.612;1.572;2023-03-13T12:22:16;98227.31;;;18.11;52.00
67738;BME280;54534;43.612;1.572;2023-03-13T12:27:33;98212.22;;;18.11;51.99
67738;BME280;54534;43.612;1.572;2023-03-13T12:32:37;98207.72;;;18.12;52.25
67738;BME280;54534;43.612;1.572;2023-03-13T12:35:28;98211.22;;;18.12;52.11
67738;BME280;54534;43.612;1.572;2023-03-13T12:37:59;98204.22;;;18.11;52.38
67738;BME280;54534;43.612;1.572;2023-03-13T12:40:37;98197.94;;;18.12;52.15
67738;BME280;54534;43.612;1.572;2023-03-13T12:43:16;98193.59;;;18.11;52.18
67738;BME280;54534;43.612;1.572;2023-03-13T12:58:52;98147.53;;;18.11;51.89
67738;BME280;54534;43.612;1.572;2023-03-13T13:06:14;98134.91;;;18.13;52.14
67738;BME280;54534;43.612;1.572;2023-03-13T13:16:55;98097.66;;;18.13;52.15
67738;BME280;54534;43.612;1.572;2023-03-13T13:24:51;98090.53;;;18.14;52.38
67738;BME280;54534;43.612;1.572;2023-03-13T13:30:31;98079.03;;;18.13;52.13
67738;BME280;54534;43.612;1.572;2023-03-13T13:35:41;98065.59;;;18.15;52.29
67738;BME280;54534;43.612;1.572;2023-03-13T13:43:46;98054.97;;;18.15;52.21
67738;BME280;54534;43.612;1.572;2023-03-13T13:46:30;98043.31;;;18.16;52.45
67738;BME280;54534;43.612;1.572;2023-03-13T13:51:35;98042.50;;;18.15;52.47
67738;BME280;54534;43.612;1.572;2023-03-13T13:54:03;98044.16;;;18.16;52.56
67738;BME280;54534;43.612;1.572;2023-03-13T13:56:37;98050.31;;;18.17;52.65
67738;BME280;54534;43.612;1.572;2023-03-13T14:01:40;98037.88;;;18.17;52.59
67738;BME280;54534;43.612;1.572;2023-03-13T14:04:15;98038.84;;;18.16;52.64
67738;BME280;54534;43.612;1.572;2023-03-13T14:06:44;98035.22;;;18.17;52.36
67738;BME280;54534;43.612;1.572;2023-03-13T14:09:39;98031.53;;;18.18;52.65
67738;BME280;54534;43.612;1.572;2023-03-13T14:15:06;98029.03;;;18.17;52.82
67738;BME280;54534;43.612;1.572;2023-03-13T14:17:42;98013.75;;;18.19;52.23
67738;BME280;54534;43.612;1.572;2023-03-13T14:20:17;98027.06;;;18.19;52.46
67738;BME280;54534;43.612;1.572;2023-03-13T14:22:48;98016.41;;;18.19;52.31
67738;BME280;54534;43.612;1.572;2023-03-13T14:25:13;98013.09;;;18.17;52.57
67738;BME280;54534;43.612;1.572;2023-03-13T14:27:43;98021.06;;;18.17;52.80
67738;BME280;54534;43.612;1.572;2023-03-13T14:30:09;98010.41;;;18.17;52.76
67738;BME280;54534;43.612;1.572;2023-03-13T14:32:36;98009.44;;;18.18;52.72
67738;BME280;54534;43.612;1.572;2023-03-13T14:35:03;98005.78;;;18.19;52.57
67738;BME280;54534;43.612;1.572;2023-03-13T14:37:35;98004.81;;;18.20;52.87
67738;BME280;54534;43.612;1.572;2023-03-13T14:40:08;98005.78;;;18.19;52.73
67738;BME280;54534;43.612;1.572;2023-03-13T14:42:38;97998.66;;;18.19;53.01
67738;BME280;54534;43.612;1.572;2023-03-13T14:45:13;98008.34;;;18.20;52.85
67738;BME280;54534;43.612;1.572;2023-03-13T14:47:39;97990.66;;;18.19;52.47
67738;BME280;54534;43.612;1.572;2023-03-13T14:50:11;97993.31;;;18.19;52.72
67738;BME280;54534;43.612;1.572;2023-03-13T14:52:53;97984.41;;;18.20;52.92
67738;BME280;54534;43.612;1.572;2023-03-13T14:58:02;97989.56;;;18.22;52.99
67738;BME280;54534;43.612;1.572;2023-03-13T15:00:43;97983.25;;;18.23;52.66
67738;BME280;54534;43.612;1.572;2023-03-13T15:05:42;97978.06;;;18.21;52.75